createdAt,value
2019-01-02T00:02:37.225Z,100663.48
2019-01-02T00:05:42.441Z,100676.59
2019-01-02T00:08:47.861Z,100697.23
2019-01-02T00:11:53.077Z,100713.45
2019-01-02T00:14:58.371Z,100723.80
2019-01-02T00:18:03.505Z,100739.81
2019-01-02T00:21:08.891Z,100769.06
2019-01-02T00:24:14.034Z,100793.28
2019-01-02T00:27:19.329Z,100792.59
2019-01-02T00:30:24.742Z,100803.73
2019-01-02T00:33:30.403Z,100802.13
2019-01-02T00:36:36.084Z,100795.91
2019-01-02T00:39:41.268Z,100797.95
2019-01-02T00:42:46.417Z,100807.27
2019-01-02T00:45:51.642Z,100807.95
2019-01-02T00:48:56.959Z,100824.87
2019-01-02T00:52:02.143Z,100816.77
2019-01-02T00:55:07.803Z,100816.86
2019-01-02T00:58:13.233Z,100815.09
2019-01-02T01:01:18.838Z,100817.32
2019-01-02T01:04:23.985Z,100834.62
2019-01-02T01:07:29.199Z,100836.27
2019-01-02T01:10:34.521Z,100837.43
2019-01-02T01:13:39.752Z,100832.78
2019-01-02T01:16:44.866Z,100830.90
2019-01-02T01:19:50.476Z,100831.22
2019-01-02T01:22:55.781Z,100824.25
2019-01-02T01:26:02.290Z,100832.05
2019-01-02T01:29:07.934Z,100832.95
2019-01-02T01:32:13.383Z,100827.77
2019-01-02T01:35:19.125Z,100830.73
2019-01-02T01:38:24.628Z,100829.61
2019-01-02T01:41:30.159Z,100825.53
2019-01-02T01:44:35.765Z,100812.56
2019-01-02T01:47:41.253Z,100820.48
2019-01-02T01:50:46.739Z,100813.39
2019-01-02T01:53:52.945Z,100808.62
2019-01-02T01:56:58.466Z,100807.41
2019-01-02T02:00:05.053Z,100802.95
2019-01-02T02:03:12.180Z,100803.67
2019-01-02T02:06:17.885Z,100805.06
2019-01-02T02:09:23.070Z,100792.13
2019-01-02T02:12:28.176Z,100797.31
2019-01-02T02:15:33.292Z,100795.10
2019-01-02T02:18:38.486Z,100790.94
2019-01-02T02:21:43.578Z,100787.52
2019-01-02T02:24:49.006Z,100793.20
2019-01-02T02:27:54.415Z,100807.78
2019-01-02T02:30:59.868Z,100809.78
2019-01-02T02:34:05.565Z,100801.75
2019-01-02T02:37:10.964Z,100810.93
2019-01-02T02:40:16.551Z,100818.88
2019-01-02T02:43:21.749Z,100819.63
2019-01-02T02:46:26.876Z,100815.53
2019-01-02T02:49:32.017Z,100818.05
2019-01-02T02:52:37.124Z,100826.95
2019-01-02T02:55:42.297Z,100826.00
2019-01-02T02:58:47.748Z,100822.97
2019-01-02T03:01:53.295Z,100829.45
2019-01-02T03:04:58.870Z,100828.23
2019-01-02T03:08:04.444Z,100835.66
2019-01-02T03:11:13.155Z,100832.51
2019-01-02T03:14:18.648Z,100822.28
2019-01-02T03:17:24.137Z,100821.16
2019-01-02T03:20:29.708Z,100808.69
2019-01-02T03:23:34.829Z,100808.62
2019-01-02T03:26:40.307Z,100802.34
2019-01-02T03:29:45.430Z,100813.94
2019-01-02T03:32:50.699Z,100801.29
2019-01-02T03:35:56.268Z,100799.13
2019-01-02T03:39:01.485Z,100805.14
2019-01-02T03:42:07.830Z,100808.97
2019-01-02T03:45:15.362Z,100793.52
2019-01-02T03:48:21.535Z,100803.58
2019-01-02T03:51:26.677Z,100809.11
2019-01-02T03:54:31.844Z,100822.45
2019-01-02T03:57:37.045Z,100822.03
2019-01-02T04:00:42.212Z,100811.71
2019-01-02T04:03:47.364Z,100819.08
2019-01-02T04:06:52.547Z,100811.02
2019-01-02T04:09:57.776Z,100817.13
2019-01-02T04:13:02.901Z,100816.27
2019-01-02T04:16:08.087Z,100816.06
2019-01-02T04:19:13.257Z,100830.23
2019-01-02T04:22:18.457Z,100841.93
2019-01-02T04:25:23.619Z,100831.27
2019-01-02T04:28:28.782Z,100824.05
2019-01-02T04:31:33.959Z,100823.42
2019-01-02T04:34:39.077Z,100813.67
2019-01-02T04:37:44.230Z,100828.48
2019-01-02T04:40:49.389Z,100833.11
2019-01-02T04:43:54.561Z,100837.16
2019-01-02T04:46:59.679Z,100833.31
2019-01-02T04:50:06.102Z,100843.69
2019-01-02T04:53:11.279Z,100853.72
2019-01-02T04:56:16.462Z,100862.31
2019-01-02T04:59:21.645Z,100861.97
2019-01-02T05:02:26.849Z,100865.77
2019-01-02T05:05:31.968Z,100860.73
2019-01-02T05:08:37.119Z,100847.67
2019-01-02T05:11:42.330Z,100848.52
2019-01-02T05:14:47.526Z,100860.73
2019-01-02T05:17:52.712Z,100864.78
2019-01-02T05:20:57.820Z,100863.58
2019-01-02T05:24:02.963Z,100868.63
2019-01-02T05:27:08.158Z,100864.78
2019-01-02T05:30:20.662Z,100867.11
2019-01-02T05:33:25.968Z,100872.01
2019-01-02T05:36:31.106Z,100877.81
2019-01-02T05:39:36.354Z,100873.12
2019-01-02T05:42:41.486Z,100869.41
2019-01-02T05:45:46.700Z,100871.64
2019-01-02T05:48:52.373Z,100877.67
2019-01-02T05:51:57.602Z,100883.98
2019-01-02T05:55:02.765Z,100887.92
2019-01-02T05:58:07.994Z,100896.91
2019-01-02T06:01:13.128Z,100904.81
2019-01-02T06:04:18.333Z,100906.84
2019-01-02T06:07:23.586Z,100904.81
2019-01-02T06:10:28.832Z,100915.12
2019-01-02T06:13:33.968Z,100919.19
2019-01-02T06:16:39.204Z,100923.73
2019-01-02T06:19:44.366Z,100932.23
2019-01-02T06:22:49.550Z,100929.72
2019-01-02T06:25:54.770Z,100929.08
2019-01-02T06:29:00.038Z,100941.00
2019-01-02T06:32:05.177Z,100938.80
2019-01-02T06:35:10.701Z,100943.70
2019-01-02T06:38:15.945Z,100948.75
2019-01-02T06:41:21.104Z,100951.71
2019-01-02T06:44:26.366Z,100939.47
2019-01-02T06:47:31.467Z,100939.59
2019-01-02T06:50:36.700Z,100944.50
2019-01-02T06:53:42.011Z,100950.66
2019-01-02T06:56:47.156Z,100956.33
2019-01-02T06:59:52.320Z,100975.30
2019-01-02T07:02:57.500Z,100979.20
2019-01-02T07:06:02.595Z,100980.52
2019-01-02T07:09:09.292Z,100978.26
2019-01-02T07:12:14.449Z,100988.14
2019-01-02T07:15:19.691Z,100995.89
2019-01-02T07:18:24.878Z,100992.80
2019-01-02T07:21:30.059Z,100994.03
2019-01-02T07:24:35.216Z,101002.61
2019-01-02T07:27:40.393Z,101007.42
2019-01-02T07:30:45.523Z,101004.50
2019-01-02T07:34:09.449Z,101000.69
2019-01-02T07:37:37.148Z,101011.56
2019-01-02T07:41:25.705Z,101009.55
2019-01-02T07:45:04.756Z,101006.45
2019-01-02T07:49:01.790Z,101011.66
2019-01-02T07:52:38.999Z,101014.08
2019-01-02T07:56:28.186Z,101025.08
2019-01-02T08:00:19.186Z,101016.09
2019-01-02T08:03:46.562Z,101021.42
2019-01-02T08:07:26.697Z,101033.94
2019-01-02T08:11:07.478Z,101028.33
2019-01-02T08:15:04.698Z,101033.75
2019-01-02T08:19:10.202Z,101025.82
2019-01-02T08:23:07.228Z,101034.73
2019-01-02T08:26:52.278Z,101035.59
2019-01-02T08:30:29.250Z,101053.98
2019-01-02T08:34:20.186Z,101038.11
2019-01-02T08:38:15.458Z,101039.05
2019-01-02T08:41:56.607Z,101039.66
2019-01-02T08:45:28.985Z,101036.22
2019-01-02T08:49:03.027Z,101036.41
2019-01-02T08:52:51.981Z,101033.81
2019-01-02T08:56:37.054Z,101028.89
2019-01-02T09:00:18.330Z,101028.34
2019-01-02T09:03:52.716Z,101037.64
2019-01-02T09:07:37.675Z,101041.80
2019-01-02T09:11:25.453Z,101034.74
2019-01-02T09:15:19.873Z,101050.59
2019-01-02T09:18:49.858Z,101060.02
2019-01-02T09:22:44.805Z,101062.96
2019-01-02T09:26:43.201Z,101082.36
2019-01-02T09:30:24.336Z,101085.30
2019-01-02T09:34:19.368Z,101071.20
2019-01-02T09:37:50.620Z,101074.48
2019-01-02T09:41:27.958Z,101065.37
2019-01-02T09:45:19.989Z,101066.12
2019-01-02T09:49:24.330Z,101072.01
2019-01-02T09:53:05.429Z,101077.29
2019-01-02T09:56:51.066Z,101081.54
2019-01-02T10:00:24.805Z,101069.66
2019-01-02T10:04:23.370Z,101075.49
2019-01-02T10:08:10.780Z,101081.70
2019-01-02T10:11:51.149Z,101090.18
2019-01-02T10:15:58.624Z,101083.00
2019-01-02T10:19:47.386Z,101069.78
2019-01-02T10:23:33.562Z,101069.35
2019-01-02T10:27:10.292Z,101075.58
2019-01-02T10:30:52.405Z,101080.30
2019-01-02T10:34:47.459Z,101064.29
2019-01-02T10:38:15.886Z,101076.66
2019-01-02T10:42:03.750Z,101087.95
2019-01-02T10:45:55.200Z,101098.00
2019-01-02T10:49:23.591Z,101099.83
2019-01-02T10:53:07.558Z,101102.77
2019-01-02T10:56:48.600Z,101110.70
2019-01-02T11:00:44.126Z,101119.55
2019-01-02T11:04:45.228Z,101106.50
2019-01-02T11:08:20.036Z,101108.14
2019-01-02T11:12:02.758Z,101103.67
2019-01-02T11:15:37.083Z,101098.39
2019-01-02T11:19:19.127Z,101090.48
2019-01-02T11:22:40.506Z,101087.91
2019-01-02T11:26:29.859Z,101081.91
2019-01-02T11:30:19.932Z,101073.64
2019-01-02T11:34:06.669Z,101077.40
2019-01-02T11:37:51.553Z,101091.52
2019-01-02T11:41:33.698Z,101084.62
2019-01-02T11:45:16.304Z,101076.69
2019-01-02T11:48:21.869Z,101074.37
2019-01-02T11:51:27.165Z,101081.49
2019-01-02T11:54:32.304Z,101082.47
2019-01-02T11:57:37.531Z,101082.06
2019-01-02T12:00:42.781Z,101075.15
2019-01-02T12:03:47.898Z,101074.93
2019-01-02T12:06:53.114Z,101073.61
2019-01-02T12:09:58.230Z,101069.11
2019-01-02T12:13:03.556Z,101076.45
2019-01-02T12:16:08.719Z,101079.11
2019-01-02T12:19:13.843Z,101080.05
2019-01-02T12:22:19.021Z,101070.98
2019-01-02T12:25:24.153Z,101080.83
2019-01-02T12:28:29.391Z,101081.37
2019-01-02T12:31:34.573Z,101085.17
2019-01-02T12:34:39.931Z,101088.72
2019-01-02T12:37:45.288Z,101086.34
2019-01-02T12:40:50.494Z,101088.09
2019-01-02T12:43:55.680Z,101091.27
2019-01-02T12:47:00.816Z,101095.53
2019-01-02T12:50:07.961Z,101090.35
2019-01-02T12:53:13.201Z,101086.14
2019-01-02T12:56:18.452Z,101101.87
2019-01-02T12:59:27.354Z,101105.18
2019-01-02T13:02:49.771Z,101112.45
2019-01-02T13:06:40.873Z,101108.44
2019-01-02T13:10:10.986Z,101111.77
2019-01-02T13:13:46.122Z,101129.00
2019-01-02T13:17:14.961Z,101121.33
2019-01-02T13:20:53.981Z,101121.41
2019-01-02T13:24:24.457Z,101120.86
2019-01-02T13:28:00.807Z,101132.37
2019-01-02T13:31:49.807Z,101134.89
2019-01-02T13:35:06.832Z,101145.55
2019-01-02T13:38:52.020Z,101144.22
2019-01-02T13:42:26.038Z,101146.13
2019-01-02T13:45:40.747Z,101154.69
2019-01-02T13:49:13.087Z,101159.57
2019-01-02T13:52:18.443Z,101150.89
2019-01-02T13:55:23.681Z,101161.38
2019-01-02T13:58:29.101Z,101164.84
2019-01-02T14:01:34.486Z,101161.62
2019-01-02T14:04:41.508Z,101164.25
2019-01-02T14:07:46.700Z,101168.13
2019-01-02T14:10:52.929Z,101177.00
2019-01-02T14:13:58.107Z,101181.66
2019-01-02T14:17:05.592Z,101186.92
2019-01-02T14:20:10.769Z,101193.17
2019-01-02T14:23:16.131Z,101195.11
2019-01-02T14:26:21.291Z,101182.34
2019-01-02T14:29:26.570Z,101193.41
2019-01-02T14:32:31.761Z,101197.79
2019-01-02T14:35:36.911Z,101192.48
2019-01-02T14:38:42.105Z,101203.55
2019-01-02T14:41:47.286Z,101201.38
2019-01-02T14:44:52.456Z,101207.21
2019-01-02T14:47:57.591Z,101213.72
2019-01-02T14:51:02.957Z,101216.22
2019-01-02T14:54:08.271Z,101226.16
2019-01-02T14:57:13.469Z,101228.31
2019-01-02T15:00:18.697Z,101225.75
2019-01-02T15:03:23.932Z,101230.90
2019-01-02T15:06:29.097Z,101235.62
2019-01-02T15:09:34.280Z,101238.98
2019-01-02T15:12:40.581Z,101240.62
2019-01-02T15:15:45.744Z,101251.36
2019-01-02T15:18:51.103Z,101246.45
2019-01-02T15:21:56.266Z,101260.80
2019-01-02T15:25:01.473Z,101269.39
2019-01-02T15:28:06.752Z,101284.77
2019-01-02T15:31:11.976Z,101284.08
2019-01-02T15:34:17.151Z,101292.64
2019-01-02T15:37:22.348Z,101280.05
2019-01-02T15:40:27.543Z,101302.52
2019-01-02T15:43:32.722Z,101301.21
2019-01-02T15:46:37.863Z,101310.42
2019-01-02T15:49:43.054Z,101314.58
2019-01-02T15:52:48.228Z,101314.70
2019-01-02T15:55:53.351Z,101321.13
2019-01-02T15:58:58.483Z,101341.31
2019-01-02T16:02:03.701Z,101339.83
2019-01-02T16:05:08.965Z,101347.28
2019-01-02T16:08:14.145Z,101358.33
2019-01-02T16:11:20.357Z,101362.93
2019-01-02T16:14:25.635Z,101366.45
2019-01-02T16:17:30.844Z,101374.08
2019-01-02T16:20:35.952Z,101374.36
2019-01-02T16:23:41.251Z,101370.53
2019-01-02T16:26:46.431Z,101382.35
2019-01-02T16:29:51.663Z,101389.22
2019-01-02T16:32:56.832Z,101386.83
2019-01-02T16:36:02.000Z,101390.66
2019-01-02T16:39:09.078Z,101399.30
2019-01-02T16:42:19.169Z,101390.98
2019-01-02T16:45:24.517Z,101393.48
2019-01-02T16:48:29.720Z,101393.17
2019-01-02T16:51:35.042Z,101393.06
2019-01-02T16:54:40.239Z,101406.82
2019-01-02T16:57:45.419Z,101405.98
2019-01-02T17:00:50.619Z,101410.69
2019-01-02T17:03:55.812Z,101414.77
2019-01-02T17:07:01.103Z,101423.78
2019-01-02T17:10:07.171Z,101429.74
2019-01-02T17:13:13.911Z,101434.61
2019-01-02T17:16:19.129Z,101437.59
2019-01-02T17:19:24.582Z,101436.98
2019-01-02T17:22:29.775Z,101434.16
2019-01-02T17:25:35.136Z,101442.30
2019-01-02T17:28:40.373Z,101445.28
2019-01-02T17:31:45.693Z,101453.84
2019-01-02T17:34:50.836Z,101452.38
2019-01-02T17:37:56.369Z,101460.45
2019-01-02T17:41:01.555Z,101463.42
2019-01-02T17:44:06.837Z,101469.39
2019-01-02T17:47:12.036Z,101474.22
2019-01-02T17:50:17.299Z,101462.77
2019-01-02T17:53:22.536Z,101459.63
2019-01-02T17:56:27.766Z,101460.70
2019-01-02T17:59:32.893Z,101466.22
2019-01-02T18:02:38.097Z,101467.92
2019-01-02T18:05:43.264Z,101470.25
2019-01-02T18:08:48.508Z,101479.36
2019-01-02T18:11:53.709Z,101481.14
2019-01-02T18:14:59.040Z,101484.94
2019-01-02T18:18:04.197Z,101491.57
2019-01-02T18:21:09.444Z,101498.88
2019-01-02T18:24:14.759Z,101499.14
2019-01-02T18:27:19.911Z,101500.13
2019-01-02T18:30:25.270Z,101499.86
2019-01-02T18:33:30.430Z,101504.25
2019-01-02T18:36:35.764Z,101515.62
2019-01-02T18:39:40.965Z,101509.55
2019-01-02T18:42:46.094Z,101517.28
2019-01-02T18:45:51.356Z,101522.22
2019-01-02T18:48:56.550Z,101518.06
2019-01-02T18:52:02.487Z,101505.25
2019-01-02T18:55:07.713Z,101520.98
2019-01-02T18:58:12.939Z,101522.64
2019-01-02T19:01:18.116Z,101526.17
2019-01-02T19:04:23.359Z,101523.50
2019-01-02T19:07:28.680Z,101518.47
2019-01-02T19:10:33.815Z,101524.03
2019-01-02T19:13:39.498Z,101533.64
2019-01-02T19:16:44.934Z,101541.91
2019-01-02T19:19:50.436Z,101545.46
2019-01-02T19:22:55.632Z,101550.40
2019-01-02T19:26:01.049Z,101550.25
2019-01-02T19:29:06.277Z,101548.44
2019-01-02T19:32:11.428Z,101552.20
2019-01-02T19:35:16.673Z,101546.48
2019-01-02T19:38:21.882Z,101559.85
2019-01-02T19:41:27.071Z,101553.68
2019-01-02T19:44:38.157Z,101560.98
2019-01-02T19:47:43.468Z,101565.52
2019-01-02T19:50:48.635Z,101562.81
2019-01-02T19:53:53.794Z,101561.05
2019-01-02T19:56:58.938Z,101569.77
2019-01-02T20:00:04.682Z,101565.33
2019-01-02T20:03:09.983Z,101573.89
2019-01-02T20:06:15.285Z,101580.15
2019-01-02T20:09:20.606Z,101576.39
2019-01-02T20:12:25.840Z,101579.25
2019-01-02T20:15:31.170Z,101571.30
2019-01-02T20:18:36.424Z,101567.98
2019-01-02T20:21:41.647Z,101571.63
2019-01-02T20:24:47.945Z,101574.45
2019-01-02T20:27:53.111Z,101575.14
2019-01-02T20:30:58.270Z,101569.48
2019-01-02T20:34:03.480Z,101566.34
2019-01-02T20:37:08.878Z,101568.64
2019-01-02T20:40:14.128Z,101568.40
2019-01-02T20:43:19.409Z,101567.72
2019-01-02T20:46:24.586Z,101570.80
2019-01-02T20:49:29.908Z,101564.16
2019-01-02T20:52:35.168Z,101562.29
2019-01-02T20:55:40.376Z,101563.22
2019-01-02T20:58:45.551Z,101559.17
2019-01-02T21:01:50.886Z,101560.31
2019-01-02T21:04:56.007Z,101561.91
2019-01-02T21:08:01.277Z,101561.75
2019-01-02T21:11:06.451Z,101571.23
2019-01-02T21:14:11.674Z,101570.45
2019-01-02T21:17:16.980Z,101570.61
2019-01-02T21:20:22.190Z,101567.58
2019-01-02T21:23:27.518Z,101575.27
2019-01-02T21:26:32.637Z,101576.50
2019-01-02T21:29:37.928Z,101577.31
2019-01-02T21:32:44.757Z,101569.75
2019-01-02T21:35:50.065Z,101581.83
2019-01-02T21:38:55.254Z,101576.33
2019-01-02T21:42:00.366Z,101579.50
2019-01-02T21:45:05.877Z,101577.57
2019-01-02T21:48:11.032Z,101581.67
2019-01-02T21:51:16.228Z,101582.77
2019-01-02T21:54:27.995Z,101582.50
2019-01-02T21:57:35.159Z,101576.66
2019-01-02T22:00:40.362Z,101584.39
2019-01-02T22:03:45.588Z,101587.32
2019-01-02T22:06:50.860Z,101588.92
2019-01-02T22:09:56.084Z,101585.51
2019-01-02T22:13:01.290Z,101582.46
2019-01-02T22:16:06.453Z,101592.17
2019-01-02T22:19:11.642Z,101579.30
2019-01-02T22:22:16.886Z,101578.35
2019-01-02T22:25:22.087Z,101583.04
2019-01-02T22:28:27.405Z,101586.63
2019-01-02T22:31:32.557Z,101583.70
2019-01-02T22:34:37.836Z,101582.46
2019-01-02T22:37:43.020Z,101592.64
2019-01-02T22:40:48.211Z,101592.09
2019-01-02T22:43:53.406Z,101593.03
2019-01-02T22:46:58.628Z,101611.22
2019-01-02T22:50:04.254Z,101613.16
2019-01-02T22:53:09.519Z,101620.79
2019-01-02T22:56:14.782Z,101627.70
2019-01-02T22:59:19.994Z,101633.11
2019-01-02T23:02:47.206Z,101631.96
2019-01-02T23:06:17.523Z,101637.81
2019-01-02T23:09:42.372Z,101647.52
2019-01-02T23:13:12.565Z,101644.41
2019-01-02T23:16:55.230Z,101637.58
2019-01-02T23:20:31.238Z,101644.53
2019-01-02T23:23:54.502Z,101657.84
2019-01-02T23:27:17.339Z,101661.63
2019-01-02T23:30:40.433Z,101665.64
2019-01-02T23:34:13.732Z,101666.44
2019-01-02T23:37:39.341Z,101669.68
2019-01-02T23:41:02.580Z,101675.73
2019-01-02T23:44:26.909Z,101666.97
2019-01-02T23:47:52.174Z,101679.15
2019-01-02T23:51:16.311Z,101671.55
2019-01-02T23:54:40.430Z,101673.77
2019-01-02T23:58:03.449Z,101686.45
